Latest Weather Observations for Yamba

IDN60801

Issued at 4:32 pm EST Friday 28 August 2015 (issued every 30 minutes, with the page automatically refreshed every 10 minutes)

About weather observations | Map of weather stations | Latest weather observations for NSW | Other Formats
Station Details ID: 058012 Name: YAMBA PILOT STATION Lat: -29.43 Lon: 153.36 Height: 27.4 m
Data from the previous 72 hours. | See also: Recent months at Yamba
Date/Time
EST
Temp
°C
App
Temp
°C
Dew
Point
Rel
Hum
%
Delta-T
°C
Wind Press
QNH
hPa
Press
MSL
hPa
Rain
since 9 am
mm
Dir
 
Spd
km/h
Gust
km/h
Spd
kts
Gust
kts
28/04:30pm 19.6 17.8 9.5 52 5.3 ENE 9 15 5 8 1019.2 1019.1 0.2
28/04:00pm 22.5 20.3 7.9 39 7.6 NNW 9 13 5 7 1018.8 1018.7 0.2
28/03:30pm 22.5 19.9 6.3 35 8.2 NW 9 15 5 8 1018.6 1018.5 0.2
28/03:00pm 22.6 20.2 6.8 36 8.1 NW 9 15 5 8 1018.8 1018.7 0.2
28/02:30pm 22.5 19.1 5.9 34 8.4 WNW 13 22 7 12 1018.9 1018.8 0.2
28/02:00pm 22.8 20.5 7.4 37 8.0 NNW 9 20 5 11 1019.0 1018.9 0.2
28/01:30pm 21.7 18.1 5.2 34 8.2 WNW 13 20 7 11 1019.5 1019.4 0.2
28/01:00pm 21.4 18.0 5.7 36 7.8 W 13 26 7 14 1019.8 1019.7 0.2
28/12:30pm 20.9 17.6 7.9 43 6.7 W 15 24 8 13 1020.0 1019.9 0.2
28/12:00pm 20.3 15.8 6.3 40 7.0 W 19 30 10 16 1020.5 1020.4 0.2
28/11:30am 19.7 15.3 6.4 42 6.7 W 19 32 10 17 1021.0 1020.9 0.2
28/11:00am 19.0 14.4 5.5 41 6.6 W 19 32 10 17 1021.6 1021.6 0.0
28/10:30am 18.5 14.2 5.4 42 6.4 WSW 17 32 9 17 1022.0 1022.0 0.0
28/10:00am 18.6 15.5 7.4 48 5.7 WSW 13 24 7 13 1022.2 1022.2 0.0
28/09:30am 17.8 14.4 7.8 52 5.1 WSW 15 30 8 16 1022.3 1022.3 0.0
28/09:00am 17.3 14.8 8.4 56 4.5 WSW 11 20 6 11 1022.3 1022.3 4.0
28/08:30am 16.2 14.0 9.4 64 3.5 WSW 11 22 6 12 1022.2 1022.2 4.0
28/08:00am 14.7 13.2 10.7 77 2.1 WSW 9 15 5 8 1021.9 1021.9 4.0
28/07:30am 14.1 13.7 13.0 93 0.6 SW 7 13 4 7 1021.8 1021.8 4.0
28/07:00am 13.8 13.1 13.3 97 0.3 SW 9 13 5 7 1021.6 1021.6 4.0
28/06:30am 13.6 13.5 13.3 98 0.2 WSW 6 11 3 6 1021.3 1021.3 4.0
28/06:00am 13.8 13.2 13.5 98 0.2 WSW 9 13 5 7 1020.9 1020.8 4.0
28/05:30am 14.1 13.2 13.8 98 0.2 W 11 17 6 9 1020.5 1020.4 4.0
28/05:00am 14.3 13.5 14.0 98 0.2 W 11 17 6 9 1020.2 1020.1 4.0
28/04:30am 14.4 13.6 14.1 98 0.2 W 11 17 6 9 1020.0 1019.9 4.0
28/04:00am 14.5 13.8 14.2 98 0.2 W 11 15 6 8 1019.7 1019.6 4.0
28/03:30am 14.6 14.3 14.3 98 0.2 W 9 13 5 7 1019.5 1019.4 4.0
28/03:00am 14.7 14.4 14.4 98 0.2 W 9 15 5 8 1019.7 1019.6 4.0
28/02:30am 14.7 14.8 14.4 98 0.2 W 7 11 4 6 1019.6 1019.5 4.0
28/02:00am 14.7 15.0 14.4 98 0.2 WSW 6 11 3 6 1019.9 1019.8 4.0
28/01:30am 14.9 14.7 14.6 98 0.2 W 9 11 5 6 1020.2 1020.1 4.0
28/01:00am 14.9 14.7 14.6 98 0.2 W 9 15 5 8 1020.6 1020.5 4.0
28/12:30am 15.0 15.2 14.7 98 0.2 W 7 11 4 6 1020.3 1020.2 4.0
28/12:00am 14.9 15.2 14.6 98 0.2 WSW 6 11 3 6 1020.3 1020.2 4.0
 
Date/Time
EST
Temp
°C
App
Temp
°C
Dew
Point
Rel
Hum
%
Delta-T
°C
Wind Press
QNH
hPa
Press
MSL
hPa
Rain
since 9 am
mm
Dir
 
Spd
km/h
Gust
km/h
Spd
kts
Gust
kts
27/11:30pm 15.0 15.8 14.7 98 0.2 SW 4 9 2 5 1020.2 1020.1 4.0
27/11:00pm 15.1 14.9 14.8 98 0.2 WNW 9 11 5 6 1020.3 1020.2 4.0
27/10:30pm 14.9 14.7 14.6 98 0.2 W 9 13 5 7 1020.2 1020.1 4.0
27/10:00pm 14.9 15.1 14.6 98 0.2 WNW 7 9 4 5 1020.2 1020.1 4.0
27/09:30pm 14.9 15.2 14.6 98 0.2 SW 6 9 3 5 1020.4 1020.3 4.0
27/09:00pm 14.8 14.9 14.5 98 0.2 WNW 7 11 4 6 1020.0 1019.9 4.0
27/08:30pm 15.0 14.8 14.7 98 0.2 W 9 11 5 6 1020.4 1020.3 4.0
27/08:00pm 15.2 15.5 14.9 98 0.2 NNW 7 11 4 6 1020.2 1020.1 4.0
27/07:30pm 15.1 14.9 14.8 98 0.2 NNW 9 15 5 8 1020.0 1019.9 4.0
27/07:00pm 15.0 14.8 14.7 98 0.2 NNW 9 11 5 6 1019.8 1019.7 4.0
27/06:30pm 15.1 15.3 14.8 98 0.2 NNW 7 11 4 6 1019.4 1019.3 4.0
27/06:00pm 15.1 15.3 14.8 98 0.2 N 7 15 4 8 1019.5 1019.4 3.8
27/05:30pm 15.2 15.5 14.9 98 0.2 NNW 7 11 4 6 1019.5 1019.4 3.2
27/05:00pm 15.3 15.6 15.0 98 0.2 NW 7 11 4 6 1019.1 1019.0 2.6
27/04:30pm 15.2 15.7 14.9 98 0.2 NNW 6 9 3 5 1019.0 1018.9 2.0
27/04:00pm 15.0 15.1 14.5 97 0.3 NNW 7 11 4 6 1018.6 1018.5 1.8
27/03:30pm 14.8 14.6 13.7 93 0.6 NNW 7 13 4 7 1018.7 1018.6 1.4
27/03:00pm 15.2 15.2 13.6 90 0.9 NNW 6 9 3 5 1018.4 1018.3 1.2
27/02:30pm 15.6 15.3 13.4 87 1.2 NNW 7 11 4 6 1018.6 1018.5 1.0
27/02:00pm 16.1 16.5 13.6 85 1.4 NNW 4 7 2 4 1018.5 1018.4 0.8
27/01:30pm 16.2 16.9 12.2 77 2.2 CALM 0 2 0 1 1018.8 1018.7 0.6
27/01:00pm 15.5 14.8 12.1 80 1.8 W 7 9 4 5 1019.5 1019.4 0.6
27/12:30pm 16.0 15.4 13.5 85 1.4 W 9 13 5 7 1020.4 1020.3 0.6
27/12:00pm 16.4 15.6 12.9 80 1.9 WNW 9 13 5 7 1020.6 1020.5 0.2
27/11:30am 16.7 16.4 12.7 77 2.2 SSW 6 9 3 5 1020.4 1020.3 0.0
27/11:00am 16.6 16.2 14.1 85 1.4 W 9 13 5 7 1021.0 1020.9 0.0
27/10:30am 16.8 17.2 15.2 90 0.9 W 7 11 4 6 1021.7 1021.7 0.0
27/10:00am 16.3 15.8 13.8 85 1.4 WNW 9 15 5 8 1022.1 1022.1 0.0
27/09:30am 16.4 16.3 13.9 85 1.4 SW 7 9 4 5 1021.5 1021.5 0.0
27/09:00am 15.4 14.5 12.7 84 1.5 SSW 9 13 5 7 1021.5 1021.5 0.4
27/08:30am 15.2 15.2 13.7 91 0.8 SW 6 9 3 5 1021.7 1021.7 0.2
27/08:00am 15.4 14.3 13.2 87 1.2 WSW 11 17 6 9 1021.4 1021.4 0.2
27/07:30am 15.6 15.0 13.6 88 1.1 SW 9 13 5 7 1020.5 1020.4 0.2
27/07:00am 15.3 14.2 13.0 86 1.3 SSW 11 17 6 9 1020.2 1020.1 0.2
27/06:30am 15.2 14.2 13.4 89 1.0 SSW 11 17 6 9 1020.1 1020.0 0.2
27/06:00am 14.9 14.2 13.1 89 1.0 WSW 9 13 5 7 1019.9 1019.8 0.2
27/05:30am 15.0 14.2 13.9 93 0.6 W 11 17 6 9 1019.9 1019.8 0.2
27/05:00am 15.0 14.2 14.0 94 0.6 W 11 15 6 8 1019.4 1019.3 0.2
27/04:30am 15.0 13.7 13.7 92 0.7 W 13 17 7 9 1019.8 1019.7 0.2
27/04:00am 15.1 13.8 13.8 92 0.7 W 13 19 7 10 1019.8 1019.7 0.0
27/03:30am 15.1 14.7 14.1 94 0.6 WSW 9 13 5 7 1019.2 1019.1 0.0
27/03:00am 15.0 14.6 14.2 95 0.5 WSW 9 11 5 6 1019.1 1019.0 0.0
27/02:30am 15.0 14.3 14.2 95 0.5 WSW 11 17 6 9 1019.1 1019.0 0.0
27/02:00am 15.2 14.6 14.7 97 0.3 WSW 11 15 6 8 1019.6 1019.5 0.0
27/01:30am 15.1 14.9 14.8 98 0.2 WSW 9 15 5 8 1019.7 1019.6 0.0
27/01:00am 15.1 14.6 14.8 98 0.2 WSW 11 15 6 8 1019.7 1019.6 0.0
27/12:30am 14.9 13.9 14.6 98 0.2 WSW 13 15 7 8 1020.2 1020.1 0.0
27/12:00am 15.2 15.1 14.9 98 0.2 WSW 9 13 5 7 1019.9 1019.8 0.0
 
Date/Time
EST
Temp
°C
App
Temp
°C
Dew
Point
Rel
Hum
%
Delta-T
°C
Wind Press
QNH
hPa
Press
MSL
hPa
Rain
since 9 am
mm
Dir
 
Spd
km/h
Gust
km/h
Spd
kts
Gust
kts
26/11:30pm 15.4 15.3 14.9 97 0.3 W 9 13 5 7 1020.4 1020.3 0.0
26/11:00pm 16.3 16.5 15.8 97 0.3 W 9 11 5 6 1020.4 1020.3 0.0
26/10:30pm 17.6 19.2 16.8 95 0.5 E 4 9 2 5 1020.5 1020.4 0.0
26/10:00pm 17.8 19.2 17.3 97 0.3 SE 6 9 3 5 1020.3 1020.2 0.0
26/09:30pm 17.9 19.2 17.6 98 0.2 NW 7 9 4 5 1020.7 1020.6 0.0
26/09:00pm 18.6 20.4 18.3 98 0.2 N 6 9 3 5 1020.7 1020.6 0.0
26/08:30pm 19.1 20.9 18.8 98 0.2 NE 7 11 4 6 1020.2 1020.1 0.0
26/08:00pm 18.8 20.6 18.3 97 0.3 N 6 9 3 5 1020.3 1020.2 0.0
26/07:30pm 19.2 20.8 18.2 94 0.6 NE 7 11 4 6 1019.8 1019.7 0.0
26/07:00pm 18.9 19.9 16.9 88 1.2 N 7 11 4 6 1019.2 1019.1 0.0
26/06:30pm 18.9 19.4 15.6 81 2.0 N 7 11 4 6 1018.4 1018.3 0.0
26/06:00pm 19.3 18.2 10.6 57 4.7 N 7 11 4 6 1018.0 1017.9 0.0
26/05:30pm 20.4 19.5 10.5 53 5.4 NNE 6 7 3 4 1017.8 1017.7 0.0
26/05:00pm 21.6 20.5 10.1 48 6.2 NNW 6 7 3 4 1017.7 1017.6 0.0
26/04:30pm 24.6 23.1 9.3 38 8.3 NNW 7 9 4 5 1017.5 1017.4 0.0
26/04:00pm 24.2 22.2 8.6 37 8.3 NW 9 15 5 8 1017.2 1017.1 0.0
26/03:30pm 24.9 21.1 5.7 29 9.8 WNW 15 20 8 11 1017.1 1017.0 0.0
26/03:00pm 25.4 21.8 5.1 27 10.3 WNW 13 22 7 12 1017.1 1017.0 0.0
26/02:30pm 25.8 22.4 5.9 28 10.3 WNW 13 19 7 10 1017.4 1017.3 0.0
26/02:00pm 25.6 22.3 8.1 33 9.4 WNW 15 22 8 12 1017.5 1017.4 0.0
26/01:30pm 24.9 20.8 6.1 30 9.7 WNW 17 26 9 14 1017.6 1017.5 0.0
26/01:00pm 25.0 21.7 8.1 34 9.0 WNW 15 26 8 14 1017.9 1017.8 0.0
26/12:30pm 24.0 21.8 9.2 39 8.0 WNW 11 22 6 12 1018.4 1018.3 0.0
26/12:00pm 23.3 19.9 9.3 41 7.5 WNW 17 24 9 13 1019.0 1018.9 0.0
26/11:30am 21.6 17.8 9.2 45 6.6 W 19 26 10 14 1019.3 1019.2 0.0
26/11:00am 21.1 17.1 8.4 44 6.6 WNW 19 32 10 17 1019.6 1019.5 0.0
26/10:30am 20.6 17.7 9.8 50 5.8 W 15 24 8 13 1019.9 1019.8 0.0
26/10:00am 19.2 15.6 8.5 50 5.5 W 17 26 9 14 1020.2 1020.1 0.0
26/09:30am 17.9 14.1 7.6 51 5.2 W 17 28 9 15 1020.5 1020.4 0.0
26/09:00am 17.3 13.9 9.0 58 4.3 W 17 24 9 13 1020.5 1020.4 0.0
26/08:30am 15.8 11.6 8.1 60 3.9 W 20 33 11 18 1020.7 1020.6 0.0
26/08:00am 15.2 12.1 8.9 66 3.2 W 15 22 8 12 1020.5 1020.4 0.0
26/07:30am 14.1 10.9 8.5 69 2.8 W 15 20 8 11 1020.0 1019.9 0.0
26/07:00am 13.2 10.3 8.3 72 2.4 WNW 13 19 7 10 1019.7 1019.6 0.0
26/06:30am 12.4 10.0 8.5 77 1.9 W 11 19 6 10 1019.5 1019.4 0.0
26/06:00am 12.4 9.5 8.1 75 2.1 W 13 19 7 10 1019.2 1019.1 0.0
26/05:30am 12.2 9.7 8.1 76 2.0 W 11 17 6 9 1018.8 1018.7 0.0
26/05:00am 12.6 10.5 8.3 75 2.1 W 9 13 5 7 1018.6 1018.5 0.0
26/04:30am 12.9 10.9 8.8 76 2.1 W 9 15 5 8 1018.5 1018.4 0.0
26/04:00am 12.8 10.4 8.7 76 2.0 WNW 11 17 6 9 1018.5 1018.4 0.0
26/03:30am 13.0 11.1 9.1 77 2.0 WNW 9 13 5 7 1018.2 1018.1 0.0
26/03:00am 13.5 11.5 8.8 73 2.4 WNW 9 11 5 6 1018.0 1017.9 0.0
26/02:30am 14.3 12.6 7.6 64 3.3 SSW 6 9 3 5 1018.3 1018.2 0.0
26/02:00am 14.0 12.2 7.8 66 3.1 WSW 7 11 4 6 1018.4 1018.3 0.0
26/01:30am 14.5 12.5 7.3 62 3.5 WSW 7 11 4 6 1018.5 1018.4 0.0
26/01:00am 15.1 13.1 7.2 59 3.9 SW 7 11 4 6 1018.7 1018.6 0.0
26/12:30am 15.8 13.4 7.0 56 4.3 SW 9 15 5 8 1018.8 1018.7 0.0
26/12:00am 16.3 13.5 7.0 54 4.6 SW 11 15 6 8 1018.8 1018.7 0.0
 
Date/Time
EST
Temp
°C
App
Temp
°C
Dew
Point
Rel
Hum
%
Delta-T
°C
Wind Press
QNH
hPa
Press
MSL
hPa
Rain
since 9 am
mm
Dir
 
Spd
km/h
Gust
km/h
Spd
kts
Gust
kts
25/11:30pm 16.5 13.8 7.4 55 4.5 SSW 11 19 6 10 1018.9 1018.8 0.0
25/11:00pm 16.2 13.9 7.4 56 4.4 WSW 9 13 5 7 1019.0 1018.9 0.0
25/10:30pm 17.3 15.1 7.9 54 4.8 WSW 9 15 5 8 1018.8 1018.7 0.0
25/10:00pm 17.4 15.1 7.5 52 5.0 W 9 13 5 7 1018.8 1018.7 0.0
25/09:30pm 18.7 16.7 7.2 47 5.8 WSW 7 13 4 7 1018.7 1018.6 0.0
25/09:00pm 19.2 16.7 8.2 49 5.7 W 11 19 6 10 1018.3 1018.2 0.0
25/08:30pm 20.1 17.2 8.1 46 6.2 W 13 20 7 11 1017.8 1017.7 0.0
25/08:00pm 20.9 16.4 6.8 40 7.2 W 20 26 11 14 1017.3 1017.2 0.0
25/07:30pm 21.6 17.2 6.7 38 7.6 W 19 26 10 14 1016.7 1016.6 0.0
25/07:00pm 22.3 19.2 7.3 38 7.8 W 13 22 7 12 1016.5 1016.4 0.0
25/06:30pm 23.2 19.2 6.5 34 8.6 W 17 26 9 14 1016.1 1016.0 0.0
25/06:00pm 23.3 18.8 7.0 35 8.4 WNW 20 30 11 16 1015.4 1015.3 0.0
25/05:30pm 23.8 18.8 6.6 33 8.9 WNW 22 37 12 20 1014.7 1014.6 0.0
25/05:00pm 24.7 19.4 6.9 32 9.3 WNW 24 35 13 19 1014.5 1014.4 0.0

Other Formats:

Comma delimited format used in spreadsheet applications
http://www.bom.gov.au/fwo/IDN60801/IDN60801.94589.axf

JavaScript Object Notation format (JSON) in row-major order
http://www.bom.gov.au/fwo/IDN60801/IDN60801.94589.json